createdAt,value
2023-01-10T00:01:10.515Z,80.81
2023-01-10T00:06:14.530Z,82.75
2023-01-10T00:11:38.473Z,84.02
2023-01-10T00:16:42.837Z,84.02
2023-01-10T00:21:46.817Z,84.84
2023-01-10T00:26:54.285Z,83.39
2023-01-10T00:31:58.808Z,84.10
2023-01-10T00:37:02.870Z,84.23
2023-01-10T00:42:25.505Z,85.94
2023-01-10T00:47:29.497Z,85.59
2023-01-10T00:52:34.314Z,85.08
2023-01-10T00:57:41.815Z,84.74
2023-01-10T01:02:46.706Z,85.47
2023-01-10T01:07:50.951Z,86.05
2023-01-10T01:12:58.193Z,88.41
2023-01-10T01:18:02.263Z,88.90
2023-01-10T01:23:06.431Z,89.20
2023-01-10T01:28:13.965Z,87.72
2023-01-10T01:33:18.110Z,88.24
2023-01-10T01:38:22.179Z,88.11
2023-01-10T01:43:32.088Z,88.75
2023-01-10T01:48:39.085Z,89.51
2023-01-10T01:53:47.126Z,89.33
2023-01-10T01:58:56.422Z,92.69
2023-01-10T02:04:07.930Z,91.58
2023-01-10T02:09:20.194Z,89.74
2023-01-10T02:14:28.329Z,90.09
2023-01-10T02:19:49.965Z,91.62
2023-01-10T02:25:23.211Z,90.46
2023-01-10T02:30:56.696Z,91.30
2023-01-10T02:36:21.999Z,89.66
2023-01-10T02:41:31.263Z,90.83
2023-01-10T02:46:37.038Z,90.46
2023-01-10T02:51:42.504Z,89.80
2023-01-10T02:57:15.490Z,91.40
2023-01-10T03:02:30.746Z,90.33
2023-01-10T03:07:44.539Z,88.99
2023-01-10T03:12:57.994Z,89.36
2023-01-10T03:18:05.408Z,89.73
2023-01-10T03:23:13.743Z,90.02
2023-01-10T03:28:23.702Z,90.03
2023-01-10T03:33:30.906Z,90.21
2023-01-10T03:38:42.637Z,90.55
2023-01-10T03:44:11.579Z,90.84
2023-01-10T03:49:18.180Z,91.48
2023-01-10T03:54:23.649Z,89.81
2023-01-10T03:59:29.627Z,89.53
2023-01-10T04:04:34.159Z,89.34
2023-01-10T04:09:39.968Z,89.14
2023-01-10T04:14:45.547Z,89.40
2023-01-10T04:19:49.629Z,89.04
2023-01-10T04:24:55.158Z,89.97
2023-01-10T04:29:59.262Z,89.74
2023-01-10T04:35:04.036Z,88.79
2023-01-10T04:40:11.804Z,89.77
2023-01-10T04:45:17.870Z,88.43
2023-01-10T04:50:22.003Z,90.46
2023-01-10T04:55:27.910Z,90.59
2023-01-10T05:00:31.938Z,91.57
2023-01-10T05:05:36.003Z,89.29
2023-01-10T05:10:41.700Z,89.05
2023-01-10T05:15:45.713Z,89.13
2023-01-10T05:20:49.870Z,88.26
2023-01-10T05:25:55.267Z,90.97
2023-01-10T05:30:59.230Z,89.71
2023-01-10T05:36:04.000Z,88.92
2023-01-10T05:41:12.507Z,87.29
2023-01-10T05:46:16.843Z,86.27
2023-01-10T05:51:21.265Z,85.08
2023-01-10T05:56:26.958Z,85.21
2023-01-10T06:01:31.348Z,84.63
2023-01-10T06:06:35.584Z,83.62
2023-01-10T06:11:41.644Z,82.72
2023-01-10T06:16:45.829Z,82.81
2023-01-10T06:21:50.363Z,81.89
2023-01-10T06:26:55.718Z,82.81
2023-01-10T06:32:00.664Z,82.31
2023-01-10T06:37:04.630Z,81.57
2023-01-10T06:42:10.587Z,82.55
2023-01-10T06:47:14.929Z,83.16
2023-01-10T06:52:19.209Z,81.87
2023-01-10T06:57:24.652Z,81.84
2023-01-10T07:02:31.349Z,83.19
2023-01-10T07:07:35.415Z,84.61
2023-01-10T07:12:40.866Z,85.31
2023-01-10T07:17:45.093Z,84.63
2023-01-10T07:22:56.877Z,84.25
2023-01-10T07:28:03.066Z,84.76
2023-01-10T07:33:07.929Z,83.09
2023-01-10T07:38:12.070Z,86.02
2023-01-10T07:43:19.573Z,84.13
2023-01-10T07:48:24.376Z,84.81
2023-01-10T07:53:30.890Z,85.81
2023-01-10T07:58:38.082Z,88.01
2023-01-10T08:03:42.750Z,88.76
2023-01-10T08:08:46.905Z,91.03
2023-01-10T08:13:53.038Z,93.01
2023-01-10T08:18:57.318Z,94.34
2023-01-10T08:24:01.682Z,95.61
2023-01-10T08:29:07.271Z,94.95
2023-01-10T08:34:11.464Z,94.42
2023-01-10T08:39:15.799Z,95.38
2023-01-10T08:44:22.788Z,94.68
2023-01-10T08:49:27.006Z,95.19
2023-01-10T08:54:31.360Z,96.12
2023-01-10T08:59:36.949Z,94.04
2023-01-10T09:04:41.021Z,93.90
2023-01-10T09:09:45.297Z,93.88
2023-01-10T09:14:50.899Z,93.39
2023-01-10T09:19:58.546Z,92.74
2023-01-10T09:25:02.596Z,94.14
2023-01-10T09:30:09.571Z,95.40
2023-01-10T09:35:13.761Z,94.55
2023-01-10T09:40:20.923Z,93.10
2023-01-10T09:45:34.255Z,94.50
2023-01-10T09:50:52.608Z,94.05
2023-01-10T09:55:59.998Z,95.29
2023-01-10T10:01:10.940Z,95.90
2023-01-10T10:06:16.161Z,96.64
2023-01-10T10:11:38.959Z,96.14
2023-01-10T10:17:03.363Z,94.07
2023-01-10T10:22:14.498Z,93.02
2023-01-10T10:27:24.528Z,95.10
2023-01-10T10:32:46.546Z,93.23
2023-01-10T10:37:53.849Z,91.76
2023-01-10T10:43:00.721Z,93.93
2023-01-10T10:48:15.321Z,94.66
2023-01-10T10:53:20.041Z,94.58
2023-01-10T10:58:26.169Z,94.17
2023-01-10T11:03:44.046Z,94.53
2023-01-10T11:08:52.261Z,94.16
2023-01-10T11:13:58.059Z,94.43
2023-01-10T11:19:21.708Z,93.60
2023-01-10T11:24:30.428Z,94.15
2023-01-10T11:29:40.773Z,93.50
2023-01-10T11:34:54.054Z,93.68
2023-01-10T11:40:18.507Z,95.23
2023-01-10T11:45:26.122Z,96.87
2023-01-10T11:50:35.185Z,98.61
2023-01-10T11:55:40.796Z,98.99
2023-01-10T12:00:47.603Z,98.93
2023-01-10T12:05:56.512Z,99.66
2023-01-10T12:11:03.891Z,98.23
2023-01-10T12:16:23.155Z,98.21
2023-01-10T12:21:37.414Z,98.31
2023-01-10T12:26:43.328Z,97.84
2023-01-10T12:31:48.108Z,97.42
2023-01-10T12:37:02.573Z,97.24
2023-01-10T12:42:37.852Z,98.81
2023-01-10T12:47:56.210Z,99.41
2023-01-10T12:53:06.584Z,99.09
2023-01-10T12:58:21.801Z,96.95
2023-01-10T13:03:33.562Z,96.93
2023-01-10T13:08:43.329Z,96.38
2023-01-10T13:13:55.835Z,97.59
2023-01-10T13:19:02.610Z,95.93
2023-01-10T13:24:22.333Z,96.15
2023-01-10T13:29:28.289Z,96.97
2023-01-10T13:34:36.102Z,96.43
2023-01-10T13:39:46.361Z,98.75
2023-01-10T13:45:20.046Z,99.62
2023-01-10T13:51:06.847Z,98.94
2023-01-10T13:56:31.971Z,98.26
2023-01-10T14:01:56.416Z,97.77
2023-01-10T14:07:03.014Z,97.75
2023-01-10T14:12:19.187Z,97.66
2023-01-10T14:17:26.568Z,97.03
2023-01-10T14:22:32.542Z,100.00
2023-01-10T14:27:46.424Z,100.00
2023-01-10T14:32:52.869Z,100.00
2023-01-10T14:37:59.727Z,98.26
2023-01-10T14:43:10.052Z,99.05
2023-01-10T14:48:29.392Z,99.80
2023-01-10T14:53:33.542Z,99.09
2023-01-10T14:58:39.332Z,99.26
2023-01-10T15:03:47.817Z,98.54
2023-01-10T15:09:03.844Z,98.09
2023-01-10T15:14:14.795Z,98.24
2023-01-10T15:19:23.544Z,98.07
2023-01-10T15:24:34.217Z,99.68
2023-01-10T15:29:44.726Z,100.00
2023-01-10T15:34:52.333Z,100.00
2023-01-10T15:39:58.561Z,100.00
2023-01-10T15:45:29.584Z,100.00
2023-01-10T15:50:38.900Z,100.00
2023-01-10T15:55:48.063Z,100.00
2023-01-10T16:00:55.289Z,100.00
2023-01-10T16:06:02.334Z,100.00
2023-01-10T16:11:10.466Z,100.00
2023-01-10T16:16:23.588Z,100.00
2023-01-10T16:21:30.968Z,100.00
2023-01-10T16:26:36.084Z,100.00
2023-01-10T16:31:42.285Z,100.00
2023-01-10T16:36:46.452Z,100.00
2023-01-10T16:42:08.346Z,100.00
2023-01-10T16:47:13.778Z,100.00
2023-01-10T16:52:18.046Z,100.00
2023-01-10T16:57:23.811Z,100.00
2023-01-10T17:02:29.529Z,100.00
2023-01-10T17:07:33.681Z,98.66
2023-01-10T17:12:42.756Z,97.77
2023-01-10T17:17:48.169Z,97.37
2023-01-10T17:22:52.274Z,97.97
2023-01-10T17:28:02.529Z,99.44
2023-01-10T17:33:12.520Z,99.77
2023-01-10T17:38:18.360Z,99.78
2023-01-10T17:43:26.787Z,97.55
2023-01-10T17:48:35.781Z,96.84
2023-01-10T17:53:49.384Z,94.14
2023-01-10T17:58:54.372Z,94.23
2023-01-10T18:04:00.404Z,93.54
2023-01-10T18:09:07.158Z,95.54
2023-01-10T18:14:32.322Z,96.41
2023-01-10T18:19:40.185Z,97.61
2023-01-10T18:24:45.856Z,98.35
2023-01-10T18:29:51.177Z,96.63
2023-01-10T18:35:01.835Z,95.42
2023-01-10T18:40:09.972Z,94.89
2023-01-10T18:45:17.290Z,93.62
2023-01-10T18:50:23.628Z,93.63
2023-01-10T18:55:29.151Z,94.48
2023-01-10T19:00:33.376Z,93.58
2023-01-10T19:05:38.877Z,95.02
2023-01-10T19:11:07.449Z,96.58
2023-01-10T19:16:17.281Z,95.12
2023-01-10T19:21:24.201Z,95.44
2023-01-10T19:26:37.033Z,95.28
2023-01-10T19:31:43.338Z,95.26
2023-01-10T19:36:55.723Z,95.60
2023-01-10T19:42:08.380Z,95.52
2023-01-10T19:47:13.743Z,95.00
2023-01-10T19:52:19.803Z,95.17
2023-01-10T19:57:28.438Z,95.34
2023-01-10T20:02:36.337Z,95.66
2023-01-10T20:07:42.136Z,95.73
2023-01-10T20:12:46.345Z,96.47
2023-01-10T20:17:50.426Z,95.83
2023-01-10T20:22:56.902Z,96.12
2023-01-10T20:28:00.978Z,95.80
2023-01-10T20:33:05.170Z,95.55
2023-01-10T20:38:10.620Z,95.53
2023-01-10T20:43:15.137Z,96.16
2023-01-10T20:48:19.317Z,95.66
2023-01-10T20:53:25.454Z,95.05
2023-01-10T20:58:29.567Z,94.76
2023-01-10T21:03:34.989Z,94.85
2023-01-10T21:08:41.143Z,93.87
2023-01-10T21:13:45.223Z,92.44
2023-01-10T21:18:51.154Z,90.95
2023-01-10T21:23:56.765Z,90.88
2023-01-10T21:29:02.574Z,91.45
2023-01-10T21:34:06.579Z,90.94
2023-01-10T21:39:12.132Z,91.31
2023-01-10T21:44:16.135Z,91.21
2023-01-10T21:49:22.634Z,91.58
2023-01-10T21:54:29.573Z,90.87
2023-01-10T21:59:34.152Z,89.57
2023-01-10T22:04:38.343Z,90.44
2023-01-10T22:09:43.772Z,90.56
2023-01-10T22:14:48.144Z,89.67
2023-01-10T22:19:52.248Z,90.37
2023-01-10T22:24:57.720Z,91.29
2023-01-10T22:30:02.542Z,91.93
2023-01-10T22:35:07.944Z,91.16
2023-01-10T22:40:13.862Z,91.66
2023-01-10T22:45:18.510Z,92.20
2023-01-10T22:50:22.837Z,91.30
2023-01-10T22:55:30.566Z,89.52
2023-01-10T23:00:34.805Z,89.35
2023-01-10T23:05:39.136Z,89.02
2023-01-10T23:10:46.915Z,89.57
2023-01-10T23:15:57.440Z,89.90
2023-01-10T23:21:02.064Z,90.13
2023-01-10T23:26:10.994Z,88.90
2023-01-10T23:31:17.000Z,89.54
2023-01-10T23:36:22.559Z,88.74
2023-01-10T23:41:28.751Z,89.08
2023-01-10T23:46:33.228Z,88.62
2023-01-10T23:51:37.491Z,88.60
2023-01-10T23:56:43.655Z,89.70
